This is the latest recevied weather packets stored in our database for station/object IN3XSV-13. If no packets are shown the sender has not sent any weather packets the latest 10 day(s).
| Time | Temp. | Humidity | Pressure | Rain* | Wind** | Luminosity | Snow |
|---|---|---|---|---|---|---|---|
| 1787565774 | 28.89° C | 50% | 1012.2 hPa | 0 mm | - | - | - |
| 1787565474 | 29.44° C | 49% | 1012.2 hPa | 0 mm | - | - | - |
| 1787565174 | 30.56° C | 47% | 1012.3 hPa | 0 mm | - | - | - |
| 1787564874 | 31.11° C | 46% | 1012.3 hPa | 0 mm | - | - | - |
| 1787564574 | 30.56° C | 47% | 1012.4 hPa | 0 mm | - | - | - |
| 1787564274 | 30° C | 48% | 1012.6 hPa | 0 mm | - | - | - |
| 1787563974 | 29.44° C | 49% | 1012.7 hPa | 0 mm | - | - | - |
| 1787563674 | 28.89° C | 49% | 1012.5 hPa | 0 mm | - | - | - |
| 1787563374 | 30° C | 48% | 1012.6 hPa | 0 mm | - | - | - |
| 1787563074 | 28.89° C | 50% | 1012.7 hPa | 0 mm | - | - | - |
| 1787562774 | 28.89° C | 50% | 1012.7 hPa | 0 mm | - | - | - |
| 1787562474 | 30° C | 48% | 1012.7 hPa | 0 mm | - | - | - |
| 1787562174 | 30.56° C | 47% | 1012.7 hPa | 0 mm | - | - | - |
| 1787561874 | 31.67° C | 47% | 1012.7 hPa | 0 mm | - | - | - |
| 1787561574 | 30° C | 49% | 1012.7 hPa | 0 mm | - | - | - |
| 1787561274 | 29.44° C | 50% | 1012.7 hPa | 0 mm | - | - | - |
| 1787560974 | 30.56° C | 49% | 1012.8 hPa | 0 mm | - | - | - |
| 1787560674 | 31.11° C | 48% | 1012.9 hPa | 0 mm | - | - | - |
| 1787560374 | 31.67° C | 49% | 1013 hPa | 0 mm | - | - | - |
| 1787560074 | 30.56° C | 51% | 1012.9 hPa | 0 mm | - | - | - |
| 1787559774 | 28.89° C | 54% | 1013 hPa | 0 mm | - | - | - |
| 1787559474 | 27.22° C | 57% | 1013 hPa | 0 mm | - | - | - |
| 1787559174 | 26.67° C | 59% | 1013 hPa | 0 mm | - | - | - |
| 1787558874 | 26.67° C | 59% | 1012.9 hPa | 0 mm | - | - | - |
| 1787558574 | 25.56° C | 59% | 1013.1 hPa | 0 mm | - | - | - |
* Rain latest hour (hover to see other rain measurements)
** Current wind speed in m/s (hover to see current wind gust speed)